Chickamauga Observed Data For Previous 48 Hours

Caption
Day and Hour Reservoir Elevation (behind dam)* Tailwater Elevation (below dam)* Average Hourly Discharge*
9/21/2017 2 AM EDT 681.32 633.65 15,957
9/21/2017 3 AM EDT 681.23 633.63 16,037
9/21/2017 4 AM EDT 681.17 633.68 15,954
9/21/2017 5 AM EDT 681.25 633.54 16,112
9/21/2017 6 AM EDT 681.35 633.39 16,032
9/21/2017 7 AM EDT 681.39 633.34 16,054
9/21/2017 8 AM EDT 681.37 633.48 14,613
9/21/2017 9 AM EDT 681.36 633.42 13,784
9/21/2017 10 AM EDT 681.27 633.29 13,817
9/21/2017 11 AM EDT 681.24 633.25 13,989
9/21/2017 12 PM EDT 681.23 633.24 13,815
9/21/2017 1 PM EDT 681.25 633.12 13,823
9/21/2017 2 PM EDT 681.29 633.13 13,742
9/21/2017 3 PM EDT 681.28 633.13 13,565
9/21/2017 4 PM EDT 681.22 634.08 18,576
9/21/2017 5 PM EDT 681.33 634.02 20,152
9/21/2017 6 PM EDT 681.34 634.82 24,941
9/21/2017 7 PM EDT 681.32 634.92 26,450
9/21/2017 8 PM EDT 681.32 634.94 26,381
9/21/2017 9 PM EDT 681.29 635.07 26,307
9/21/2017 10 PM EDT 681.34 634.34 20,390
9/21/2017 11 PM EDT 681.38 634.24 20,152
9/22/2017 12 AM EDT 681.46 633.33 13,719
9/22/2017 1 AM EDT 681.50 633.19 13,477
9/22/2017 2 AM EDT 681.50 633.05 13,602
9/22/2017 3 AM EDT 681.41 633.04 13,594
9/22/2017 4 AM EDT 681.35 633.12 13,577
9/22/2017 5 AM EDT 681.38 633.13 13,711
9/22/2017 6 AM EDT 681.41 633.10 13,610
9/22/2017 7 AM EDT 681.44 633.07 13,547
9/22/2017 8 AM EDT 681.47 632.91 13,644
9/22/2017 9 AM EDT 681.46 632.95 13,728
9/22/2017 10 AM EDT 681.44 632.95 13,736
9/22/2017 11 AM EDT 681.40 632.93 13,697
9/22/2017 12 PM EDT 681.19 634.19 17,482
9/22/2017 1 PM EDT 681.21 635.34 35,346
9/22/2017 2 PM EDT 681.17 635.48 35,373
9/22/2017 3 PM EDT 681.13 637.46 44,626
9/22/2017 4 PM EDT 681.29 636.52 44,789
9/22/2017 5 PM EDT 681.31 636.26 34,146
9/22/2017 6 PM EDT 681.28 636.23 33,854
9/22/2017 7 PM EDT 681.35 636.24 33,737
9/22/2017 8 PM EDT 681.38 636.31 33,987
9/22/2017 9 PM EDT 681.39 636.34 33,576
9/22/2017 10 PM EDT 681.43 636.44 33,589
9/22/2017 11 PM EDT 681.46 635.21 20,557
9/23/2017 12 AM EDT 681.52 634.23 13,872
9/23/2017 1 AM EDT 681.57 633.86 13,740
9/23/2017 2 AM EDT 681.53 633.68 13,774
9/23/2017 3 AM EDT 681.50 633.53 13,638

Elevations are in feet above sea level. Discharges are in cubic feet per second and are reported at the end of the hour.